createdAt,value
2023-03-24T00:00:48.001Z,3.23
2023-03-24T00:03:17.243Z,3.10
2023-03-24T00:05:45.306Z,3.00
2023-03-24T00:08:13.109Z,4.17
2023-03-24T00:10:42.577Z,3.43
2023-03-24T00:13:10.515Z,3.40
2023-03-24T00:15:38.182Z,2.33
2023-03-24T00:18:10.778Z,3.57
2023-03-24T00:20:38.733Z,2.57
2023-03-24T00:23:06.499Z,3.10
2023-03-24T00:25:36.303Z,3.10
2023-03-24T00:28:05.940Z,3.77
2023-03-24T00:30:35.042Z,3.60
2023-03-24T00:33:04.179Z,3.70
2023-03-24T00:35:33.466Z,4.53
2023-03-24T00:38:01.064Z,2.57
2023-03-24T00:40:28.740Z,3.43
2023-03-24T00:42:56.421Z,2.67
2023-03-24T00:45:24.187Z,2.70
2023-03-24T00:47:54.058Z,3.30
2023-03-24T00:50:26.482Z,3.97
2023-03-24T00:52:58.276Z,2.90
2023-03-24T00:55:28.985Z,3.30
2023-03-24T00:57:57.369Z,3.53
2023-03-24T01:00:27.302Z,2.93
2023-03-24T01:02:57.186Z,4.30
2023-03-24T01:05:28.958Z,2.70
2023-03-24T01:07:59.149Z,2.53
2023-03-24T01:10:27.859Z,2.60
2023-03-24T01:12:58.062Z,4.33
2023-03-24T01:15:29.526Z,3.93
2023-03-24T01:17:58.294Z,2.60
2023-03-24T01:20:26.494Z,4.00
2023-03-24T01:22:54.456Z,3.43
2023-03-24T01:25:25.687Z,3.10
2023-03-24T01:27:53.934Z,3.20
2023-03-24T01:30:25.616Z,2.53
2023-03-24T01:32:54.045Z,2.83
2023-03-24T01:35:23.000Z,2.97
2023-03-24T01:37:50.818Z,2.83
2023-03-24T01:40:21.246Z,2.97
2023-03-24T01:42:51.237Z,3.23
2023-03-24T01:45:42.460Z,3.10
2023-03-24T01:48:16.957Z,8.37
2023-03-24T01:50:48.914Z,2.87
2023-03-24T01:53:17.003Z,2.27
2023-03-24T01:55:48.344Z,3.03
2023-03-24T01:58:21.735Z,2.10
2023-03-24T02:01:11.070Z,3.77
2023-03-24T02:03:58.895Z,3.63
2023-03-24T02:06:28.233Z,3.07
2023-03-24T02:09:01.295Z,2.43
2023-03-24T02:11:31.809Z,2.97
2023-03-24T02:14:05.077Z,5.13
2023-03-24T02:16:55.223Z,3.73
2023-03-24T02:19:58.447Z,2.57
2023-03-24T02:23:18.011Z,3.47
2023-03-24T02:26:23.358Z,3.63
2023-03-24T02:29:04.901Z,2.63
2023-03-24T02:31:52.995Z,2.27
2023-03-24T02:34:50.254Z,2.20
2023-03-24T02:38:09.389Z,3.33
2023-03-24T02:40:44.315Z,3.13
2023-03-24T02:43:28.778Z,2.80
2023-03-24T02:46:13.603Z,3.67
2023-03-24T02:48:49.696Z,4.27
2023-03-24T02:51:23.762Z,3.63
2023-03-24T02:54:00.315Z,2.87
2023-03-24T02:56:37.470Z,3.00
2023-03-24T02:59:22.078Z,3.03
2023-03-24T03:01:59.973Z,3.60
2023-03-24T03:04:46.408Z,3.03
2023-03-24T03:07:16.618Z,2.30
2023-03-24T03:09:52.736Z,3.03
2023-03-24T03:12:23.910Z,3.37
2023-03-24T03:14:55.225Z,3.10
2023-03-24T03:17:30.610Z,2.57
2023-03-24T03:20:08.302Z,3.37
2023-03-24T03:22:43.254Z,3.77
2023-03-24T03:25:15.452Z,3.83
2023-03-24T03:27:47.040Z,3.83
2023-03-24T03:30:18.439Z,7.37
2023-03-24T03:32:54.573Z,3.37
2023-03-24T03:35:27.919Z,2.50
2023-03-24T03:38:06.381Z,2.53
2023-03-24T03:40:39.125Z,3.10
2023-03-24T03:43:16.441Z,3.50
2023-03-24T03:45:44.330Z,3.17
2023-03-24T03:48:12.539Z,5.27
2023-03-24T03:50:40.372Z,2.60
2023-03-24T03:53:09.950Z,2.90
2023-03-24T03:55:38.180Z,3.23
2023-03-24T03:58:06.348Z,3.00
2023-03-24T04:00:52.022Z,2.73
2023-03-24T04:04:06.915Z,3.20
2023-03-24T04:07:08.082Z,3.10
2023-03-24T04:09:47.404Z,2.53
2023-03-24T04:12:39.256Z,2.87
2023-03-24T04:15:36.727Z,2.83
2023-03-24T04:18:38.757Z,3.23
2023-03-24T04:21:23.197Z,2.77
2023-03-24T04:23:58.492Z,3.40
2023-03-24T04:26:34.251Z,2.90
2023-03-24T04:29:14.288Z,3.03
2023-03-24T04:31:49.217Z,4.10
2023-03-24T04:34:22.422Z,3.23
2023-03-24T04:36:54.591Z,3.37
2023-03-24T04:39:40.780Z,3.60
2023-03-24T04:42:19.344Z,4.30
2023-03-24T04:44:51.344Z,3.53
2023-03-24T04:47:43.954Z,3.23
2023-03-24T04:50:34.348Z,4.13
2023-03-24T04:53:08.940Z,3.70
2023-03-24T04:55:54.528Z,4.13
2023-03-24T04:58:45.425Z,4.17
2023-03-24T05:01:14.138Z,3.43
2023-03-24T05:03:46.058Z,3.60
2023-03-24T05:06:15.448Z,6.17
2023-03-24T05:08:43.232Z,3.40
2023-03-24T05:11:11.235Z,3.87
2023-03-24T05:13:44.495Z,3.43
2023-03-24T05:16:12.143Z,2.40
2023-03-24T05:18:44.554Z,3.97
2023-03-24T05:21:12.292Z,4.03
2023-03-24T05:23:41.620Z,2.70
2023-03-24T05:26:09.794Z,2.80
2023-03-24T05:28:50.833Z,3.33
2023-03-24T05:31:18.993Z,3.67
2023-03-24T05:33:55.771Z,2.50
2023-03-24T05:36:24.899Z,3.67
2023-03-24T05:38:57.482Z,3.40
2023-03-24T05:41:35.390Z,3.70
2023-03-24T05:44:03.438Z,3.43
2023-03-24T05:46:31.216Z,4.27
2023-03-24T05:49:00.388Z,3.73
2023-03-24T05:51:33.285Z,4.67
2023-03-24T05:54:09.057Z,2.93
2023-03-24T05:56:44.408Z,2.73
2023-03-24T05:59:15.575Z,2.60
2023-03-24T06:02:09.697Z,2.40
2023-03-24T06:04:49.790Z,1.93
2023-03-24T06:07:20.556Z,2.00
2023-03-24T06:09:51.087Z,2.37
2023-03-24T06:12:21.554Z,3.53
2023-03-24T06:14:54.908Z,2.63
2023-03-24T06:17:24.471Z,2.97
2023-03-24T06:20:02.799Z,2.83
2023-03-24T06:22:59.006Z,3.43
2023-03-24T06:25:33.723Z,3.07
2023-03-24T06:28:16.873Z,4.07
2023-03-24T06:30:47.438Z,3.57
2023-03-24T06:33:22.075Z,3.87
2023-03-24T06:35:51.824Z,3.87
2023-03-24T06:38:19.959Z,2.97
2023-03-24T06:40:49.584Z,3.33
2023-03-24T06:43:17.238Z,2.90
2023-03-24T06:45:45.743Z,3.23
2023-03-24T06:48:23.409Z,2.93
2023-03-24T06:50:54.987Z,3.53
2023-03-24T06:53:23.728Z,2.73
2023-03-24T06:55:53.030Z,3.73
2023-03-24T06:58:23.678Z,3.50
2023-03-24T07:01:01.528Z,2.83
2023-03-24T07:03:54.310Z,2.33
2023-03-24T07:06:29.672Z,3.33
2023-03-24T07:09:02.953Z,2.00
2023-03-24T07:11:32.740Z,1.47
2023-03-24T07:14:03.203Z,2.80
2023-03-24T07:16:32.136Z,1.70
2023-03-24T07:19:20.896Z,1.70
2023-03-24T07:21:54.015Z,1.70
2023-03-24T07:24:32.348Z,2.03
2023-03-24T07:27:15.095Z,1.90
2023-03-24T07:29:42.718Z,3.53
2023-03-24T07:32:24.697Z,2.10
2023-03-24T07:34:52.885Z,3.53
2023-03-24T07:37:20.489Z,2.27
2023-03-24T07:39:49.066Z,4.87
2023-03-24T07:42:18.086Z,1.87
2023-03-24T07:45:06.396Z,2.10
2023-03-24T07:47:33.999Z,2.10
2023-03-24T07:50:04.164Z,1.90
2023-03-24T07:52:31.780Z,2.30
2023-03-24T07:54:59.522Z,2.37
2023-03-24T07:57:52.331Z,2.23
2023-03-24T08:00:21.592Z,2.10
2023-03-24T08:03:04.725Z,4.07
2023-03-24T08:05:58.997Z,3.60
2023-03-24T08:08:39.526Z,2.53
2023-03-24T08:11:07.427Z,2.67
2023-03-24T08:13:36.381Z,2.40
2023-03-24T08:16:04.623Z,1.73
2023-03-24T08:18:34.909Z,2.70
2023-03-24T08:21:02.725Z,2.97
2023-03-24T08:23:30.411Z,2.30
2023-03-24T08:25:58.029Z,2.27
2023-03-24T08:28:25.731Z,2.23
2023-03-24T08:30:54.736Z,1.90
2023-03-24T08:33:22.364Z,2.10
2023-03-24T08:35:51.552Z,2.47
2023-03-24T08:38:23.051Z,1.80
2023-03-24T08:40:52.277Z,3.00
2023-03-24T08:43:23.116Z,3.23
2023-03-24T08:45:51.133Z,2.83
2023-03-24T08:48:20.304Z,2.70
2023-03-24T08:50:47.870Z,2.17
2023-03-24T08:53:15.562Z,2.97
2023-03-24T08:55:44.792Z,2.57
2023-03-24T08:58:15.245Z,3.37
2023-03-24T09:00:44.263Z,3.33
2023-03-24T09:03:18.074Z,2.10
2023-03-24T09:05:47.794Z,2.23
2023-03-24T09:08:17.713Z,2.30
2023-03-24T09:10:46.907Z,2.23
2023-03-24T09:13:14.992Z,2.37
2023-03-24T09:15:49.101Z,3.57
2023-03-24T09:18:17.244Z,3.17
2023-03-24T09:20:45.976Z,3.00
2023-03-24T09:23:15.368Z,2.70
2023-03-24T09:25:43.147Z,2.67
2023-03-24T09:28:10.997Z,3.00
2023-03-24T09:30:38.899Z,2.90
2023-03-24T09:33:06.690Z,2.33
2023-03-24T09:35:35.584Z,2.87
2023-03-24T09:38:03.736Z,2.30
2023-03-24T09:40:37.683Z,2.27
2023-03-24T09:43:08.000Z,2.30
2023-03-24T09:45:43.199Z,2.17
2023-03-24T09:48:16.495Z,3.47
2023-03-24T09:50:50.975Z,1.80
2023-03-24T09:53:29.300Z,2.50
2023-03-24T09:56:02.937Z,2.30
2023-03-24T09:58:33.662Z,1.90
2023-03-24T10:01:01.685Z,2.37
2023-03-24T10:03:29.822Z,2.23
2023-03-24T10:06:01.815Z,2.10
2023-03-24T10:08:36.295Z,2.23
2023-03-24T10:11:12.533Z,1.80
2023-03-24T10:13:52.098Z,3.40
2023-03-24T10:16:28.076Z,1.47
2023-03-24T10:19:03.020Z,4.90
2023-03-24T10:21:36.615Z,1.53
2023-03-24T10:24:11.294Z,2.27
2023-03-24T10:26:48.085Z,1.83
2023-03-24T10:29:24.241Z,2.00
2023-03-24T10:31:54.534Z,0.87
2023-03-24T10:34:25.952Z,1.60
2023-03-24T10:36:54.598Z,2.10
2023-03-24T10:39:26.286Z,1.53
2023-03-24T10:42:07.253Z,1.30
2023-03-24T10:44:35.445Z,0.73
2023-03-24T10:47:08.488Z,2.17
2023-03-24T10:49:36.131Z,2.90
2023-03-24T10:52:10.701Z,1.53
2023-03-24T10:54:38.293Z,1.27
2023-03-24T10:57:17.632Z,1.43
2023-03-24T10:59:55.242Z,2.33
2023-03-24T11:02:25.812Z,2.07
2023-03-24T11:04:58.149Z,3.83
2023-03-24T11:07:31.153Z,3.83
2023-03-24T11:10:02.022Z,1.87
2023-03-24T11:12:33.084Z,7.80
2023-03-24T11:15:26.187Z,3.07
2023-03-24T11:17:56.650Z,1.83
2023-03-24T11:20:29.565Z,1.83
2023-03-24T11:23:00.422Z,3.20
2023-03-24T11:25:31.291Z,2.23
2023-03-24T11:28:04.743Z,2.13
2023-03-24T11:30:36.031Z,2.67
2023-03-24T11:33:05.203Z,1.27
2023-03-24T11:35:41.714Z,1.97
2023-03-24T11:38:17.738Z,2.07
2023-03-24T11:40:54.721Z,1.93
2023-03-24T11:43:23.832Z,2.60
2023-03-24T11:45:59.327Z,1.70
2023-03-24T11:48:33.280Z,1.50
2023-03-24T11:51:02.250Z,1.70
2023-03-24T11:53:34.379Z,1.83
2023-03-24T11:56:07.652Z,1.53
2023-03-24T11:58:44.207Z,1.20
2023-03-24T12:01:18.068Z,3.07
2023-03-24T12:04:10.011Z,5.40
2023-03-24T12:06:50.037Z,1.53
2023-03-24T12:09:32.470Z,1.67
2023-03-24T12:12:17.603Z,2.57
2023-03-24T12:15:14.395Z,0.73
2023-03-24T12:17:56.710Z,0.60
2023-03-24T12:20:29.302Z,0.53
2023-03-24T12:23:01.775Z,0.63
2023-03-24T12:26:07.771Z,0.83
2023-03-24T12:28:47.279Z,0.90
2023-03-24T12:31:41.594Z,1.23
2023-03-24T12:34:29.148Z,1.53
2023-03-24T12:37:02.764Z,2.63
2023-03-24T12:39:33.125Z,0.93
2023-03-24T12:42:12.789Z,2.27
2023-03-24T12:45:05.959Z,0.60
2023-03-24T12:48:21.040Z,1.20
2023-03-24T12:51:00.156Z,0.53
2023-03-24T12:53:42.844Z,0.80
2023-03-24T12:56:16.445Z,0.87
2023-03-24T12:58:47.765Z,1.17
2023-03-24T13:01:24.504Z,0.50
2023-03-24T13:03:59.451Z,0.70
2023-03-24T13:06:30.741Z,0.73
2023-03-24T13:09:08.085Z,0.50
2023-03-24T13:11:47.088Z,0.40
2023-03-24T13:14:22.783Z,2.33
2023-03-24T13:16:51.725Z,1.90
2023-03-24T13:19:25.672Z,0.57
2023-03-24T13:21:57.386Z,0.43
2023-03-24T13:24:26.685Z,0.60
2023-03-24T13:27:07.434Z,2.60
2023-03-24T13:30:15.946Z,0.60
2023-03-24T13:32:49.038Z,0.60
2023-03-24T13:35:32.940Z,0.50
2023-03-24T13:38:17.884Z,0.30
2023-03-24T13:40:48.494Z,0.30
2023-03-24T13:43:22.306Z,0.63
2023-03-24T13:45:52.311Z,0.53
2023-03-24T13:48:28.346Z,2.00
2023-03-24T13:51:01.232Z,0.60
2023-03-24T13:53:36.998Z,0.77
2023-03-24T13:56:08.209Z,0.47
2023-03-24T13:58:51.880Z,0.93
2023-03-24T14:01:33.807Z,0.60
2023-03-24T14:04:22.889Z,0.63
2023-03-24T14:06:53.938Z,2.83
2023-03-24T14:09:23.258Z,0.67
2023-03-24T14:12:10.649Z,0.80
2023-03-24T14:15:14.806Z,0.50
2023-03-24T14:17:44.771Z,0.50
2023-03-24T14:20:25.789Z,0.50
2023-03-24T14:22:55.615Z,0.20
2023-03-24T14:25:27.220Z,0.30
2023-03-24T14:28:07.381Z,0.40
2023-03-24T14:30:38.205Z,0.43
2023-03-24T14:33:06.718Z,0.73
2023-03-24T14:35:37.088Z,0.80
2023-03-24T14:38:21.327Z,1.50
2023-03-24T14:40:51.360Z,0.60
2023-03-24T14:43:23.244Z,0.40
2023-03-24T14:46:00.048Z,1.27
2023-03-24T14:48:34.941Z,2.93
2023-03-24T14:51:09.849Z,2.03
2023-03-24T14:53:39.893Z,0.70
2023-03-24T14:56:13.284Z,0.97
2023-03-24T14:58:44.000Z,0.50
2023-03-24T15:01:13.010Z,0.60
2023-03-24T15:03:49.737Z,0.80
2023-03-24T15:06:19.179Z,0.40
2023-03-24T15:08:51.227Z,1.03
2023-03-24T15:11:24.344Z,3.23
2023-03-24T15:13:53.362Z,0.30
2023-03-24T15:16:24.894Z,0.90
2023-03-24T15:19:01.495Z,0.53
2023-03-24T15:21:34.827Z,0.53
2023-03-24T15:24:23.850Z,0.47
2023-03-24T15:26:54.714Z,1.93
2023-03-24T15:29:23.335Z,0.70
2023-03-24T15:31:52.104Z,0.30
2023-03-24T15:34:28.344Z,1.60
2023-03-24T15:36:58.516Z,0.77
2023-03-24T15:39:30.300Z,3.50
2023-03-24T15:41:58.204Z,2.40
2023-03-24T15:44:30.879Z,0.47
2023-03-24T15:47:00.453Z,0.50
2023-03-24T15:49:32.637Z,0.33
2023-03-24T15:52:02.789Z,0.47
2023-03-24T15:54:37.712Z,0.73
2023-03-24T15:57:17.304Z,0.70
2023-03-24T15:59:48.360Z,1.73
2023-03-24T16:02:28.966Z,1.27
2023-03-24T16:05:10.541Z,1.03
2023-03-24T16:07:40.707Z,0.53
2023-03-24T16:10:32.300Z,0.30
2023-03-24T16:13:12.613Z,0.50
2023-03-24T16:15:41.612Z,0.80
2023-03-24T16:18:15.372Z,1.00
2023-03-24T16:20:42.968Z,2.87
2023-03-24T16:23:11.518Z,2.07
2023-03-24T16:25:41.465Z,0.50
2023-03-24T16:28:11.872Z,0.57
2023-03-24T16:30:42.837Z,0.37
2023-03-24T16:33:12.656Z,0.33
2023-03-24T16:35:40.356Z,0.30
2023-03-24T16:38:08.009Z,0.50
2023-03-24T16:40:39.912Z,1.27
2023-03-24T16:43:08.997Z,1.07
2023-03-24T16:45:36.711Z,0.20
2023-03-24T16:48:04.594Z,0.20
2023-03-24T16:50:35.401Z,0.60
2023-03-24T16:53:04.707Z,0.43
2023-03-24T16:55:33.014Z,0.27
2023-03-24T16:58:00.624Z,0.67
2023-03-24T17:00:30.491Z,0.27
2023-03-24T17:02:59.904Z,0.30
2023-03-24T17:05:36.735Z,0.90
2023-03-24T17:08:04.401Z,0.90
2023-03-24T17:10:32.055Z,0.70
2023-03-24T17:12:59.820Z,1.07
2023-03-24T17:15:31.132Z,1.57
2023-03-24T17:17:58.933Z,0.70
2023-03-24T17:20:29.508Z,0.60
2023-03-24T17:22:57.805Z,1.27
2023-03-24T17:25:29.087Z,0.60
2023-03-24T17:27:57.972Z,1.33
2023-03-24T17:30:28.261Z,0.53
2023-03-24T17:32:58.206Z,0.50
2023-03-24T17:35:26.564Z,0.50
2023-03-24T17:37:54.450Z,2.17
2023-03-24T17:40:23.628Z,0.30
2023-03-24T17:42:51.569Z,0.40
2023-03-24T17:45:20.307Z,0.50
2023-03-24T17:47:48.343Z,0.63
2023-03-24T17:50:18.239Z,1.17
2023-03-24T17:52:48.208Z,2.93
2023-03-24T17:55:17.228Z,0.83
2023-03-24T17:57:45.630Z,0.50
2023-03-24T18:00:16.163Z,0.27
2023-03-24T18:02:44.676Z,2.93
2023-03-24T18:05:13.562Z,1.07
2023-03-24T18:07:42.527Z,0.30
2023-03-24T18:10:10.962Z,1.57
2023-03-24T18:12:39.844Z,0.60
2023-03-24T18:15:08.977Z,0.40
2023-03-24T18:17:37.148Z,0.40
2023-03-24T18:20:10.389Z,0.27
2023-03-24T18:22:43.198Z,0.57
2023-03-24T18:25:13.536Z,0.60
2023-03-24T18:27:41.661Z,0.40
2023-03-24T18:30:12.024Z,0.70
2023-03-24T18:32:40.520Z,0.53
2023-03-24T18:35:10.138Z,2.30
2023-03-24T18:37:37.846Z,0.57
2023-03-24T18:40:09.310Z,0.40
2023-03-24T18:42:37.861Z,0.60
2023-03-24T18:45:06.377Z,1.50
2023-03-24T18:47:34.133Z,1.73
2023-03-24T18:50:01.940Z,0.40
2023-03-24T18:52:29.670Z,0.23
2023-03-24T18:54:57.543Z,0.90
2023-03-24T18:57:26.480Z,0.63
2023-03-24T18:59:54.224Z,0.33
2023-03-24T19:02:21.859Z,0.40
2023-03-24T19:04:49.697Z,0.40
2023-03-24T19:07:24.308Z,0.53
2023-03-24T19:09:52.332Z,1.27
2023-03-24T19:12:20.040Z,0.10
2023-03-24T19:14:49.656Z,0.80
2023-03-24T19:17:17.296Z,0.63
2023-03-24T19:19:45.587Z,0.80
2023-03-24T19:22:15.264Z,0.87
2023-03-24T19:24:43.127Z,3.50
2023-03-24T19:27:10.707Z,0.40
2023-03-24T19:29:38.324Z,0.90
2023-03-24T19:32:07.420Z,0.60
2023-03-24T19:34:35.533Z,0.60
2023-03-24T19:37:03.142Z,0.20
2023-03-24T19:39:30.844Z,0.73
2023-03-24T19:41:59.694Z,0.40
2023-03-24T19:44:27.422Z,0.40
2023-03-24T19:46:55.042Z,0.23
2023-03-24T19:49:24.320Z,0.93
2023-03-24T19:51:51.925Z,0.10
2023-03-24T19:54:19.576Z,0.30
2023-03-24T19:56:47.312Z,0.50
2023-03-24T19:59:15.322Z,0.47
2023-03-24T20:01:47.678Z,1.17
2023-03-24T20:04:17.147Z,0.50
2023-03-24T20:06:47.409Z,0.43
2023-03-24T20:09:18.184Z,1.30
2023-03-24T20:11:48.361Z,0.23
2023-03-24T20:14:16.826Z,0.53
2023-03-24T20:16:44.727Z,0.40
2023-03-24T20:19:12.411Z,0.23
2023-03-24T20:21:40.622Z,3.50
2023-03-24T20:24:09.907Z,0.30
2023-03-24T20:26:37.846Z,0.70
2023-03-24T20:29:05.554Z,0.10
2023-03-24T20:31:36.287Z,0.50
2023-03-24T20:34:03.936Z,0.20
2023-03-24T20:36:32.453Z,0.20
2023-03-24T20:39:01.963Z,0.30
2023-03-24T20:41:31.164Z,0.20
2023-03-24T20:43:59.065Z,0.70
2023-03-24T20:46:27.127Z,0.77
2023-03-24T20:48:54.745Z,0.50
2023-03-24T20:51:22.665Z,0.30
2023-03-24T20:53:50.356Z,1.50
2023-03-24T20:56:19.051Z,0.47
2023-03-24T20:58:48.434Z,1.57
2023-03-24T21:01:20.814Z,0.83
2023-03-24T21:03:48.662Z,0.50
2023-03-24T21:06:17.553Z,0.67
2023-03-24T21:08:45.731Z,0.50
2023-03-24T21:11:14.362Z,0.53
2023-03-24T21:13:42.110Z,0.30
2023-03-24T21:16:12.926Z,0.97
2023-03-24T21:18:42.553Z,0.60
2023-03-24T21:21:12.421Z,0.60
2023-03-24T21:23:41.089Z,0.50
2023-03-24T21:26:10.588Z,0.60
2023-03-24T21:28:41.381Z,0.50
2023-03-24T21:31:12.669Z,0.43
2023-03-24T21:33:40.917Z,1.63
2023-03-24T21:36:09.980Z,0.83
2023-03-24T21:38:38.986Z,0.50
2023-03-24T21:41:07.312Z,0.63
2023-03-24T21:43:35.278Z,0.70
2023-03-24T21:46:04.038Z,0.83
2023-03-24T21:48:34.926Z,1.83
2023-03-24T21:51:04.092Z,1.00
2023-03-24T21:53:31.965Z,1.20
2023-03-24T21:56:04.505Z,1.13
2023-03-24T21:58:33.462Z,1.07
2023-03-24T22:01:01.821Z,3.13
2023-03-24T22:03:30.284Z,1.60
2023-03-24T22:05:59.410Z,0.50
2023-03-24T22:08:30.422Z,0.93
2023-03-24T22:10:59.092Z,0.63
2023-03-24T22:13:27.175Z,3.53
2023-03-24T22:15:56.101Z,0.60
2023-03-24T22:18:23.728Z,5.70
2023-03-24T22:20:55.970Z,0.60
2023-03-24T22:23:25.037Z,1.00
2023-03-24T22:25:53.137Z,1.20
2023-03-24T22:28:21.337Z,0.70
2023-03-24T22:30:49.040Z,0.50
2023-03-24T22:33:16.986Z,1.03
2023-03-24T22:35:44.651Z,0.53
2023-03-24T22:38:15.064Z,4.10
2023-03-24T22:40:44.379Z,0.40
2023-03-24T22:43:12.120Z,6.13
2023-03-24T22:45:39.873Z,0.57
2023-03-24T22:48:07.833Z,0.80
2023-03-24T22:50:35.484Z,0.40
2023-03-24T22:53:03.233Z,0.40
2023-03-24T22:55:30.835Z,0.70
2023-03-24T22:57:59.943Z,0.83
2023-03-24T23:00:28.809Z,0.90
2023-03-24T23:02:57.498Z,0.70
2023-03-24T23:05:25.203Z,0.70
2023-03-24T23:07:53.216Z,0.50
2023-03-24T23:10:21.346Z,1.07
2023-03-24T23:12:51.881Z,0.53
2023-03-24T23:15:23.144Z,0.63
2023-03-24T23:17:52.319Z,1.00
2023-03-24T23:20:20.984Z,0.70
2023-03-24T23:22:49.176Z,2.07
2023-03-24T23:25:18.893Z,0.87
2023-03-24T23:27:47.154Z,0.20
2023-03-24T23:30:16.324Z,0.50
2023-03-24T23:32:47.241Z,0.30
2023-03-24T23:35:15.546Z,3.80
2023-03-24T23:37:43.993Z,1.17
2023-03-24T23:40:14.904Z,0.47
2023-03-24T23:42:44.546Z,1.83
2023-03-24T23:45:14.523Z,0.73
2023-03-24T23:47:43.292Z,3.57
2023-03-24T23:50:13.188Z,1.70
2023-03-24T23:52:41.867Z,1.20
2023-03-24T23:55:11.371Z,0.40
2023-03-24T23:57:39.493Z,0.33
